Archival Weather

Chicago O'Hare International

Chicago, Illinois (KORD)

Report from: Saturday, December 31, 2022 3:51 PM CST
Current time: Wednesday, May 29, 2024 3:12 AM CDT

Current weather – Weather history – Daily summaries
Weather forecast

Temperature3.9°C (39.0°F)
Wind chill2.6°C (36.7°F)
Dew point-3.3°C (26.1°F)
Winds 3 kts (1.5 m/s, 3.5 mph) East-Southeast (120°)
Visibility10 mi. (16.1 km)
Clouds Ceiling: Broken clouds 9,500 ft. (2,896 m)
Broken clouds 17,000 ft. (5,182 m)
Broken clouds 25,000 ft. (7,620 m)
Altimeter29.88 in.Hg (1012 mB)
Relative humidity59 %
Density altitude-1,240 ft. (-378 m)
Sea-level pressure101.2 kPa (1012 mB, 29.90 in.Hg)
Remarks Automated weather observing station with precipitation discriminator
Flight conditions Visual Meteorological Conditions
Raw dataKORD 312151Z 12003KT 10SM BKN095 BKN170 BKN250 04/M03 A2988 RMK AO2 SLP124 T00391033
An error has occurred. This application may no longer respond until reloaded. Reload 🗙